Flight Track Log - Related Links

Times and Time Zones

All times are in EDT time to prevent confusion due to time zone crossing. See the SWA2852 flight status page for this flight to view local times or setup timezone preferences in your user account.


Time Position Orientation Groundspeed Altitude Reporting Facility
EDT Latitude Longitude Course Direction KTS MPH feet Rate Location/Type
Thu 04:09:51 PM 43.1036 -77.6914 221° Southwest 158 182 1,300  Level Cleveland Center
Thu 04:10:16 PM 43.0914 -77.7061 221° Southwest 147 169 2,100 2,153 Climbing Cleveland Center
Thu 04:12:02 PM 43.1031 -77.8419 277° West 233 268 6,000 2,494 Climbing Cleveland Center
Thu 04:13:02 PM 43.1178 -77.9353 282° West 246 283 9,000 2,500 Climbing Cleveland Center
Thu 04:14:02 PM 43.0650 -78.0000 222° Southwest 219 252 11,000 2,200 Climbing Cleveland Center
Thu 04:15:02 PM 42.9958 -78.0767 219° Southwest 264 304 13,400 2,700 Climbing Cleveland Center
Thu 04:16:02 PM 42.9203 -78.1536 217° Southwest 309 356 16,400 3,050 Climbing Cleveland Center
Thu 04:17:02 PM 42.8428 -78.2331 217° Southwest 339 390 19,500 1,200 Climbing Cleveland Center
Thu 04:19:02 PM 42.7428 -78.4544 238° Southwest 347 399 20,000 167 Climbing Cleveland Center
Thu 04:20:02 PM 42.7161 -78.5853 255° West 352 405 20,000 100 Level Cleveland Center
Thu 04:21:02 PM 42.6911 -78.7189 256° West 363 418 20,200 1,300 Climbing Cleveland Center
Thu 04:22:02 PM 42.6639 -78.8525 255° West 368 423 22,600 2,350 Climbing Cleveland Center
Thu 04:23:02 PM 42.6369 -78.9914 255° West 379 436 24,900 2,100 Climbing Cleveland Center
Thu 04:24:02 PM 42.6075 -79.1333 254° West 379 436 26,800 1,750 Climbing Cleveland Center
Thu 04:25:02 PM 42.5800 -79.2806 256° West 390 449 28,400 1,400 Climbing Cleveland Center
Thu 04:26:02 PM 42.5483 -79.4333 254° West 407 468 29,600 1,350 Climbing Cleveland Center
Thu 04:27:02 PM 42.5144 -79.5944 254° West 432 497 31,100 1,800 Climbing Cleveland Center
Thu 04:28:02 PM 42.4781 -79.7528 253° West 443 510 33,200 2,200 Climbing Cleveland Center
Thu 04:29:02 PM 42.4417 -79.9247 254° West 437 503 35,500 1,800 Climbing Cleveland Center
Thu 04:30:02 PM 42.4153 -80.0572 255° West 422 486 36,800 1,250 Climbing Cleveland Center
Thu 04:31:02 PM 42.3825 -80.2094 254° West 422 486 38,000 600 Climbing Cleveland Center
Thu 04:32:02 PM 42.3494 -80.3725 255° West 417 480 38,000  Level Cleveland Center
Thu 04:33:02 PM 42.3164 -80.5186 253° West 417 480 38,000  Level Cleveland Center
Thu 04:34:02 PM 42.2850 -80.6675 254° West 417 480 38,000  Level Cleveland Center
Thu 04:35:02 PM 42.2536 -80.8103 254° West 411 473 38,000  Level Cleveland Center
Thu 04:36:02 PM 42.2200 -80.9533 252° West 411 473 38,000  Level Cleveland Center
Thu 04:37:02 PM 42.1881 -81.0989 254° West 411 473 38,000  Level Cleveland Center
Thu 04:38:02 PM 42.1561 -81.2469 254° West 411 473 38,000  Level Cleveland Center
Thu 04:39:02 PM 42.1239 -81.3894 253° West 405 466 38,000  Level Cleveland Center
Thu 04:40:02 PM 42.0914 -81.5317 253° West 400 460 38,000  Level Cleveland Center
Thu 04:41:02 PM 42.0589 -81.6739 253° West 400 460 38,000  Level Cleveland Center
Thu 04:42:02 PM 42.0264 -81.8186 253° West 400 460 38,000  Level Cleveland Center
Thu 04:43:02 PM 41.9914 -81.9603 252° West 400 460 38,000  Level Cleveland Center
Thu 04:44:02 PM 41.9625 -82.0883 253° West 400 460 38,000  Level Cleveland Center
Thu 04:45:02 PM 41.9228 -82.2436 251° West 400 460 38,000  Level Cleveland Center
Thu 04:46:02 PM 41.8917 -82.3850 254° West 400 460 38,000  Level Cleveland Center
Thu 04:47:02 PM 41.8581 -82.5236 252° West 400 460 38,000  Level Cleveland Center
Thu 04:48:02 PM 41.8264 -82.6647 253° West 400 460 38,000  Level Cleveland Center
Thu 04:49:02 PM 41.7906 -82.8028 251° West 400 460 38,000  Level Cleveland Center
Thu 04:50:02 PM 41.7542 -82.9436 251° West 400 460 38,000  Level Cleveland Center
Thu 04:51:02 PM 41.7242 -83.0817 254° West 400 460 38,000  Level Cleveland Center
Thu 04:52:02 PM 41.6897 -83.2219 252° West 400 460 38,000  Level Cleveland Center
Thu 04:53:02 PM 41.6553 -83.3594 252° West 400 460 38,000  Level Cleveland Center
Thu 04:54:02 PM 41.6206 -83.4997 252° West 400 460 38,000 -450 Level Cleveland Center
Thu 04:55:02 PM 41.5878 -83.6344 252° West 400 460 37,100 -950 Descending Cleveland Center
Thu 04:56:02 PM 41.5550 -83.7717 252° West 395 455 36,100 -1,000 Descending Cleveland Center
Thu 04:57:02 PM 41.5342 -83.9147 259° West 395 455 35,100 -1,070 Descending Cleveland Center
Thu 04:58:39 PM 41.5728 -84.1425 283° West 414 476 33,300 -1,434 Descending Chicago Center
Thu 04:59:41 PM 41.6008 -84.2906 284° West 414 476 31,300 -1,610 Descending Chicago Center
Thu 05:00:42 PM 41.6158 -84.4436 278° West 419 482 30,000 -634 Descending Chicago Center
Thu 05:01:44 PM 41.6056 -84.5978 265° West 416 479 30,000 -97 Level Chicago Center
Thu 05:02:46 PM 41.5978 -84.7492 266° West 411 473 29,800 -1,452 Descending Chicago Center
Thu 05:03:48 PM 41.5883 -84.9300 266° West 408 470 27,000 -2,032 Descending Chicago Center
Thu 05:04:50 PM 41.5806 -85.0814 266° West 409 471 25,600 -1,210 Descending Chicago Center
Thu 05:05:52 PM 41.5725 -85.2200 266° West 379 436 24,500 -1,016 Descending Chicago Center
Thu 05:06:54 PM 41.5639 -85.3558 265° West 366 421 23,500 -1,016 Descending Chicago Center
Thu 05:07:56 PM 41.5569 -85.4906 266° West 352 405 22,400 -1,024 Descending Chicago Center
Thu 05:08:57 PM 41.5494 -85.6186 266° West 340 391 21,400 -1,073 Descending Chicago Center
Thu 05:09:59 PM 41.5422 -85.7350 265° West 312 359 20,200 -1,065 Descending Chicago Center
Thu 05:11:01 PM 41.5358 -85.8422 265° West 292 336 19,200 -1,113 Descending Chicago Center
Thu 05:12:03 PM 41.5297 -85.9467 266° West 283 326 17,900 -1,355 Descending Chicago Center
Thu 05:13:05 PM 41.5242 -86.0494 266° West 277 319 16,400 -1,694 Descending Chicago Center
Thu 05:14:07 PM 41.5239 -86.1750 270° West 281 323 14,400 -1,403 Descending Chicago Center
Thu 05:15:09 PM 41.5228 -86.2767 269° West 275 316 13,500 -1,548 Descending Chicago Center
Thu 05:16:11 PM 41.5222 -86.3825 270° West 286 329 11,200 -1,268 Descending Chicago Center
Thu 05:17:12 PM 41.5225 -86.4778 270° West 260 299 10,900 -537 Descending Chicago Center
Thu 05:18:14 PM 41.5219 -86.5567 269° West 219 252 10,100 -871 Descending Chicago Center
Thu 05:19:16 PM 41.5214 -86.6322 269° West 206 237 9,100 -919 Descending Chicago Center
Thu 05:20:18 PM 41.5211 -86.7128 270° West 200 230 8,200 -435 Descending Chicago Center
Thu 05:21:20 PM 41.5200 -86.7850 269° West 197 227 8,200  Level Chicago Center
Thu 05:22:22 PM 41.5192 -86.8689 269° West 190 219 8,200  Level Chicago Center
Thu 05:23:23 PM 41.5236 -86.9375 275° West 189 217 8,200 -732 Level Chicago Center
Thu 05:24:25 PM 41.5278 -87.0117 274° West 202 232 6,700 -1,065 Descending Chicago Center
Thu 05:25:27 PM 41.5253 -87.0989 268° West 231 266 6,000 -484 Descending Chicago Center
Thu 05:26:29 PM 41.5211 -87.1869 266° West 239 275 5,700 -532 Descending Chicago Center
Thu 05:27:31 PM 41.5328 -87.2794 280° West 250 288 4,900 -823 Descending Chicago Center
Thu 05:28:33 PM 41.5531 -87.3931 283° West 263 303 4,000 -488 Descending Chicago Center
Thu 05:29:34 PM 41.5844 -87.4706 298° West 250 288 3,900  Descending Chicago Center
Thu 05:30:36 PM 41.6247 -87.5261 314° West 228 262 4,000 48 Climbing Chicago Center
Thu 05:31:38 PM 41.6603 -87.5772 313° West 208 239 4,000 -484 Level Chicago Center
Thu 05:32:40 PM 41.6933 -87.6244 313° West 191 220 3,000 -991 Descending Chicago Center
Thu 05:33:33 PM 41.7333 -87.6667 322° Northwest 167 192 2,100 -947 Descending Chicago TRACON
Thu 05:34:34 PM 41.7500 -87.7167 294° West 156 180 1,200 -885 Descending Chicago TRACON
Thu 05:37:00 PM 41.7833 -87.7500 North  Level FlightAware Approximate

Login

Don't have an account? Register now (free) for customized features, flight alerts, and more!